createdAt,value
2023-05-20T00:07:40.204Z,2211.98071
2023-05-20T00:22:42.366Z,2616.18579
2023-05-20T00:37:44.411Z,2073.36841
2023-05-20T00:52:46.501Z,1970.62085
2023-05-20T01:07:48.654Z,4812.65771
2023-05-20T01:22:50.770Z,5645.30078
2023-05-20T01:37:52.844Z,4544.15674
2023-05-20T01:52:54.976Z,3570.96289
2023-05-20T02:07:57.052Z,1651.7157
2023-05-20T02:22:59.101Z,1158.3335
2023-05-20T02:38:01.219Z,982.88715
2023-05-20T02:53:03.327Z,781.26929
2023-05-20T03:08:05.439Z,342.16879
2023-05-20T03:23:07.558Z,102.74757
2023-05-20T03:38:09.641Z,31.98745
2023-05-20T03:53:11.662Z,4.84658
2023-05-20T04:08:13.885Z,0.96932
2023-05-20T04:23:15.953Z,0
2023-05-20T04:38:18.087Z,0
2023-05-20T04:53:20.124Z,0
2023-05-20T05:08:22.214Z,0
2023-05-20T05:23:24.291Z,0
2023-05-20T05:38:26.343Z,0
2023-05-20T05:53:28.495Z,0
2023-05-20T06:08:30.556Z,0
2023-05-20T06:23:32.625Z,0
2023-05-20T06:38:34.784Z,0
2023-05-20T06:53:37.442Z,0
2023-05-20T07:08:39.524Z,0
2023-05-20T07:23:41.751Z,0
2023-05-20T07:38:53.226Z,0
2023-05-20T07:54:04.514Z,0
2023-05-20T08:09:06.604Z,0
2023-05-20T08:24:08.767Z,0
2023-05-20T08:39:10.810Z,0
2023-05-20T08:54:12.890Z,0
2023-05-20T09:09:14.896Z,0
2023-05-20T09:24:17.013Z,0
2023-05-20T09:39:19.134Z,0
2023-05-20T09:54:21.277Z,0
2023-05-20T10:09:23.327Z,0
2023-05-20T10:24:25.423Z,0
2023-05-20T10:39:27.521Z,0
2023-05-20T10:54:29.596Z,0
2023-05-20T11:09:31.707Z,0
2023-05-20T11:24:33.779Z,0
2023-05-20T11:39:35.904Z,2.90795
2023-05-20T11:54:37.966Z,62.03627
2023-05-20T12:09:40.087Z,94.02372
2023-05-20T12:24:42.158Z,146.36682
2023-05-20T12:39:44.220Z,202.58719
2023-05-20T12:54:46.290Z,341.19949
2023-05-20T13:09:48.374Z,625.20929
2023-05-20T13:24:50.452Z,1661.40881
2023-05-20T13:39:52.506Z,2470.78833
2023-05-20T13:54:54.606Z,2682.09937
2023-05-20T14:09:56.725Z,2831.37402
2023-05-20T14:24:58.815Z,4207.80371
2023-05-20T14:40:00.990Z,4075.97681
2023-05-20T14:55:03.036Z,4502.47607
2023-05-20T15:10:05.091Z,3956.75098
2023-05-20T15:25:07.152Z,6121.23486
2023-05-20T15:40:09.252Z,9853.10449
2023-05-20T15:55:11.285Z,9681.53516
2023-05-20T16:10:13.346Z,10496.73047
2023-05-20T16:25:15.558Z,9492.51855
2023-05-20T16:40:17.759Z,4892.1416
2023-05-20T16:55:19.850Z,4588.74512
2023-05-20T17:10:21.904Z,10876.70312
2023-05-20T17:25:23.932Z,10741.96777
2023-05-20T17:40:26.280Z,11256.6748
2023-05-20T17:55:28.472Z,12857.0166
2023-05-20T18:10:30.469Z,4220.40479
2023-05-20T18:25:32.580Z,11518.39062
2023-05-20T18:40:35.017Z,11330.34277
2023-05-20T18:55:37.314Z,11259.58301
2023-05-20T19:10:39.470Z,10168.13281
2023-05-20T19:25:41.566Z,10447.2959
2023-05-20T19:40:43.589Z,10895.12012
2023-05-20T19:55:45.698Z,3221.03955
2023-05-20T20:10:47.735Z,2440.7395
2023-05-20T20:25:49.789Z,2363.19409
2023-05-20T20:40:51.922Z,6699.91699
2023-05-20T20:55:54.089Z,9426.60547
2023-05-20T21:10:56.215Z,11889.63867
2023-05-20T21:25:58.309Z,12686.41699
2023-05-20T21:41:00.413Z,12788.19531
2023-05-20T21:56:02.520Z,7276.66064
2023-05-20T22:11:04.562Z,2954.47729
2023-05-20T22:26:06.666Z,2785.81616
2023-05-20T22:41:08.762Z,2987.43408
2023-05-20T22:56:10.973Z,2877.90137
2023-05-20T23:11:13.041Z,2108.26392
2023-05-20T23:26:15.094Z,1636.20667
2023-05-20T23:41:17.203Z,1329.90259
2023-05-20T23:56:19.238Z,2020.05603
